Latest Weather Observations for Weipa

IDQ60801

Issued at 12:22 pm EST Thursday 23 January 2020 (issued every 10 minutes, with the page automatically refreshed every 10 minutes)

About weather observations | Map of weather stations | Latest weather observations for QLD | Other Formats
Station Details ID: 027045 Name: WEIPA AERO Lat: -12.68 Lon: 141.92 Height: 17.96 m
Data from the previous 72 hours. | See also: Recent months at Weipa
Date/Time
EST
Temp
°C
App
Temp
°C
Dew
Point
°C
Rel
Hum
%
Delta-T
°C
Wind Press
QNH
hPa
Press
MSL
hPa
Rain since
9am
mm
Dir  Spd
km/h
Gust
km/h
Spd
kts
Gust
kts
23/12:00pm 32.1 33.2 23.6 60 5.9 WNW 24 33 13 18 1010.0 1009.9 0.0
23/11:30am 31.9 33.8 23.4 60 5.9 WNW 19 30 10 16 1010.5 1010.4 0.0
23/11:00am 31.9 33.3 22.9 59 6.2 WNW 20 30 11 16 1010.6 1010.5 0.0
23/10:30am 31.4 33.9 23.8 64 5.3 WNW 17 24 9 13 1010.7 1010.6 0.0
23/10:00am 31.0 35.4 25.6 73 3.8 NW 13 22 7 12 1010.7 1010.6 0.0
23/09:30am 30.3 34.5 25.4 75 3.5 NNW 13 20 7 11 1010.8 1010.7 0.0
23/09:00am 29.5 34.2 25.0 77 3.2 NNW 9 15 5 8 1010.7 1010.6 24.0
23/08:30am 27.9 31.5 23.7 78 2.9 NW 11 17 6 9 1010.5 1010.4 24.0
23/08:00am 27.2 32.2 24.8 87 1.7 NNE 7 11 4 6 1010.4 1010.3 24.0
23/07:30am 26.2 30.8 24.2 89 1.4 NE 7 9 4 5 1009.9 1009.8 24.0
23/07:00am 25.6 30.1 24.0 91 1.1 NE 7 11 4 6 1009.7 1009.6 24.0
23/06:30am 25.2 29.2 23.8 92 1.0 NE 9 11 5 6 1009.3 1009.2 24.0
23/06:00am 25.3 30.0 23.9 92 1.0 NE 6 7 3 4 1009.0 1008.9 24.0
23/05:30am 25.4 29.8 23.8 91 1.1 NE 7 9 4 5 1008.8 1008.7 24.0
23/05:00am 25.4 29.8 23.8 91 1.1 NE 7 9 4 5 1008.6 1008.5 24.0
23/04:30am 25.2 29.5 23.6 91 1.1 ENE 7 9 4 5 1008.7 1008.6 24.0
23/04:00am 25.4 30.0 23.8 91 1.1 NE 6 7 3 4 1008.9 1008.8 24.0
23/03:30am 25.4 30.4 23.8 91 1.1 N 4 6 2 3 1009.1 1009.0 24.0
23/03:00am 25.3 29.8 23.7 91 1.1 N 6 7 3 4 1009.2 1009.1 24.0
23/02:30am 25.4 29.7 23.6 90 1.2 N 7 9 4 5 1009.5 1009.4 24.0
23/02:00am 25.4 29.6 23.5 89 1.3 N 7 9 4 5 1009.8 1009.7 24.0
23/01:30am 25.3 29.4 23.2 88 1.4 N 7 9 4 5 1010.0 1009.9 24.0
23/01:00am 25.1 29.3 23.5 91 1.1 NNW 7 11 4 6 1010.4 1010.3 24.0
23/12:30am 25.1 29.3 23.5 91 1.1 N 7 9 4 5 1010.4 1010.3 23.8
23/12:00am 25.5 30.4 23.7 90 1.2 N 4 7 2 4 1010.7 1010.6 23.8
 
Date/Time
EST
Temp
°C
App
Temp
°C
Dew
Point
°C
Rel
Hum
%
Delta-T
°C
Wind Press
QNH
hPa
Press
MSL
hPa
Rain since
9am
mm
Dir  Spd
km/h
Gust
km/h
Spd
kts
Gust
kts
22/11:30pm 25.8 29.6 24.0 90 1.2 NNW 11 15 6 8 1011.2 1011.1 23.8
22/11:00pm 25.9 29.0 24.1 90 1.2 NW 15 24 8 13 1011.4 1011.3 23.8
22/10:30pm 25.5 29.7 24.1 92 1.0 NW 9 11 5 6 1011.7 1011.6 23.8
22/10:00pm 25.4 29.9 24.0 92 1.0 N 7 9 4 5 1011.1 1011.0 23.8
22/09:30pm 25.3 30.0 23.9 92 1.0 NNE 6 7 3 4 1010.7 1010.6 23.8
22/09:00pm 25.2 30.6 23.8 92 1.0 N 2 9 1 5 1010.6 1010.5 23.8
22/08:34pm 25.3 29.6 23.7 91 1.1 NNE 7 11 4 6 1010.4 1010.3 23.4
22/08:30pm 25.3 29.3 23.7 91 1.1 N 9 13 5 7 1010.3 1010.2 23.4
22/08:00pm 25.3 26.0 23.7 91 1.1 N 26 35 14 19 1010.5 1010.4 16.6
22/07:40pm 26.4 29.3 23.1 82 2.2 WNW 13 28 7 15 1010.1 1010.0 7.4
22/07:30pm 28.1 32.2 23.9 78 2.9 SW 9 15 5 8 1009.7 1009.6 5.2
22/07:00pm 29.1 33.9 25.1 79 2.8 NW 9 13 5 7 1009.2 1009.1 5.2
22/06:30pm 29.2 33.2 25.0 78 2.9 WNW 13 20 7 11 1008.8 1008.7 5.2
22/06:00pm 29.3 33.3 24.4 75 3.4 W 11 15 6 8 1008.7 1008.6 5.2
22/05:30pm 28.0 32.3 24.2 80 2.6 W 9 13 5 7 1008.2 1008.1 5.2
22/05:00pm 27.4 30.4 23.4 79 2.7 W 13 20 7 11 1008.1 1008.0 5.2
22/04:30pm 28.1 30.0 23.5 76 3.2 W 19 32 10 17 1008.2 1008.1 5.2
22/04:00pm 30.5 34.0 24.9 72 3.9 NW 15 20 8 11 1008.1 1008.0 5.2
22/03:30pm 29.0 34.0 24.8 78 2.9 SW 7 11 4 6 1008.4 1008.3 5.2
22/03:00pm 29.1 33.4 24.9 78 2.9 W 11 17 6 9 1008.8 1008.7 4.8
22/02:30pm 29.7 34.2 24.6 74 3.6 SW 9 15 5 8 1009.1 1009.0 4.8
22/02:00pm 29.3 33.6 24.2 74 3.5 W 9 13 5 7 1009.6 1009.5 4.8
22/01:30pm 28.3 32.3 25.1 83 2.2 WNW 13 17 7 9 1009.9 1009.8 4.6
22/01:13pm 27.1 31.1 25.1 89 1.4 WNW 13 20 7 11 1010.2 1010.1 4.6
22/01:00pm 26.2 29.8 24.4 90 1.2 WSW 13 22 7 12 1010.4 1010.3 4.6
22/12:39pm 26.0 27.3 23.3 85 1.8 W 22 39 12 21 1010.9 1010.8 1.6
22/12:30pm 28.4 29.7 22.6 71 3.9 WNW 20 39 11 21 1010.8 1010.7 0.2
22/12:00pm 31.2 34.5 25.1 70 4.3 WNW 17 26 9 14 1010.7 1010.6 0.2
22/11:30am 30.5 33.9 25.3 74 3.7 NW 17 22 9 12 1010.9 1010.8 0.2
22/11:00am 31.0 34.4 24.6 68 4.5 NW 15 24 8 13 1011.1 1011.0 0.2
22/10:30am 29.8 33.8 24.4 73 3.8 W 11 19 6 10 1011.9 1011.8 0.2
22/10:00am 29.3 33.7 25.7 81 2.5 NNW 13 17 7 9 1012.2 1012.1 0.0
22/09:30am 28.1 33.4 25.3 85 2.0 NNW 7 9 4 5 1012.2 1012.1 0.0
22/09:00am 26.7 32.1 25.1 91 1.1 NW 6 9 3 5 1012.2 1012.1 59.4
22/08:30am 25.6 31.6 24.2 92 1.0 CALM 0 0 0 0 1011.9 1011.8 59.2
22/08:10am 25.3 30.0 23.9 92 1.0 WSW 6 9 3 5 1012.1 1012.0 58.8
22/08:00am 25.2 29.8 23.8 92 1.0 WSW 6 9 3 5 1012.1 1012.0 58.8
22/07:43am 25.1 28.6 23.5 91 1.1 W 11 19 6 10 1011.8 1011.7 56.4
22/07:31am 25.3 28.1 23.7 91 1.1 W 15 30 8 16 1011.6 1011.5 51.6
22/07:30am 25.3 28.1 23.7 91 1.1 W 15 30 8 16 1011.6 1011.5 51.2
22/07:29am 25.4 27.9 23.8 91 1.1 W 17 30 9 16 1011.6 1011.5 51.0
22/07:00am 25.3 29.5 23.5 90 1.2 WNW 7 13 4 7 1010.6 1010.5 49.0
22/06:31am 25.5 28.8 23.9 91 1.1 WNW 13 17 7 9 1010.3 1010.2 43.6
22/06:30am 25.5 29.2 23.9 91 1.1 WNW 11 17 6 9 1010.3 1010.2 43.4
22/06:00am 25.6 30.1 23.7 89 1.3 W 6 11 3 6 1009.9 1009.8 42.4
22/05:30am 25.8 27.7 23.5 87 1.6 NW 19 26 10 14 1009.3 1009.2 42.2
22/05:00am 26.1 31.0 24.3 90 1.2 NNW 6 9 3 5 1009.1 1009.0 42.0
22/04:30am 26.1 30.3 24.1 89 1.4 N 9 13 5 7 1009.0 1008.9 42.0
22/04:00am 26.4 30.0 24.4 89 1.4 N 13 17 7 9 1009.2 1009.1 42.0
22/03:30am 26.5 30.9 24.5 89 1.4 NNW 9 13 5 7 1009.1 1009.0 42.0
22/03:00am 26.1 31.0 24.3 90 1.2 N 6 7 3 4 1009.2 1009.1 41.6
22/02:30am 26.1 31.0 24.3 90 1.2 N 6 7 3 4 1009.4 1009.3 41.6
22/02:00am 26.2 30.8 24.2 89 1.4 N 7 11 4 6 1009.6 1009.5 41.6
22/01:30am 26.0 29.9 24.2 90 1.2 NNW 11 13 6 7 1010.3 1010.2 41.6
22/01:00am 26.1 30.5 24.5 91 1.1 NNW 9 11 5 6 1010.5 1010.4 41.6
22/12:30am 26.3 30.5 24.7 91 1.1 NNW 11 13 6 7 1011.0 1010.9 41.6
22/12:00am 26.5 30.3 24.0 86 1.7 NNW 11 19 6 10 1011.1 1011.0 41.6
 
Date/Time
EST
Temp
°C
App
Temp
°C
Dew
Point
°C
Rel
Hum
%
Delta-T
°C
Wind Press
QNH
hPa
Press
MSL
hPa
Rain since
9am
mm
Dir  Spd
km/h
Gust
km/h
Spd
kts
Gust
kts
21/11:48pm 26.4 28.8 23.7 85 1.9 WSW 17 28 9 15 1011.2 1011.1 41.6
21/11:30pm 25.9 27.5 23.2 85 1.8 W 20 32 11 17 1011.5 1011.4 41.0
21/11:29pm 25.9 27.5 23.2 85 1.8 W 20 32 11 17 1011.5 1011.4 41.0
21/11:00pm 26.8 32.4 25.4 92 1.0 NE 6 7 3 4 1011.5 1011.4 40.2
21/10:34pm 26.9 32.4 25.3 91 1.1 W 6 7 3 4 1011.2 1011.1 40.2
21/10:30pm 27.0 32.6 25.4 91 1.1 NW 6 9 3 5 1011.1 1011.0 40.0
21/10:00pm 26.6 30.0 25.2 92 1.0 NNW 17 26 9 14 1011.1 1011.0 35.0
21/09:39pm 25.9 30.6 24.3 91 1.1 ESE 7 9 4 5 1010.7 1010.6 21.6
21/09:30pm 26.1 31.0 24.3 90 1.2 W 6 22 3 12 1010.8 1010.7 17.2
21/09:24pm 26.3 29.3 24.7 91 1.1 WNW 17 26 9 14 1011.0 1010.9 11.4
21/09:14pm 26.2 28.9 23.5 85 1.8 WSW 15 26 8 14 1010.7 1010.6 2.0
21/09:00pm 27.6 32.1 24.6 84 2.1 SSW 9 19 5 10 1010.4 1010.3 0.2
21/08:30pm 27.9 34.2 24.7 83 2.2 CALM 0 6 0 3 1009.7 1009.6 0.2
21/08:00pm 28.0 32.9 24.6 82 2.4 N 7 9 4 5 1009.5 1009.4 0.2
21/07:30pm 28.4 33.5 24.6 80 2.6 NW 6 9 3 5 1009.1 1009.0 0.2
21/07:00pm 28.7 32.8 24.5 78 2.9 NW 11 15 6 8 1008.7 1008.6 0.2
21/06:30pm 29.0 32.0 25.2 80 2.7 NW 19 26 10 14 1008.2 1008.1 0.2
21/06:00pm 29.7 33.9 25.4 78 3.0 NW 13 19 7 10 1007.9 1007.8 0.2
21/05:30pm 29.8 33.5 25.1 76 3.3 NW 15 28 8 15 1008.0 1007.9 0.2
21/05:00pm 29.9 34.1 25.9 79 2.8 NW 15 20 8 11 1007.8 1007.7 0.2
21/04:30pm 29.8 34.1 24.9 75 3.4 WNW 11 19 6 10 1007.8 1007.7 0.2
21/04:00pm 29.8 33.6 24.7 74 3.6 WNW 13 17 7 9 1008.0 1007.9 0.2
21/03:30pm 29.4 33.3 24.9 77 3.2 W 13 19 7 10 1007.5 1007.4 0.2
21/03:00pm 29.4 34.0 25.4 79 2.8 WNW 11 19 6 10 1008.1 1008.0 0.2
21/02:30pm 28.7 33.6 24.7 79 2.8 NW 7 13 4 7 1008.5 1008.4 0.2
21/02:00pm 28.6 33.4 24.4 78 2.9 WNW 7 11 4 6 1009.0 1008.9 0.2
21/01:30pm 28.3 31.9 24.3 79 2.8 N 13 19 7 10 1009.7 1009.6 0.2
21/01:00pm 28.4 32.4 24.4 79 2.8 NNE 11 17 6 9 1010.3 1010.2 0.2
21/12:30pm 28.6 32.5 24.2 77 3.1 N 11 17 6 9 1010.7 1010.6 0.2
21/12:00pm 30.3 34.2 25.4 75 3.5 WNW 15 26 8 14 1010.5 1010.4 0.2
21/11:30am 30.9 34.2 24.5 68 4.5 W 15 24 8 13 1010.9 1010.8 0.2
21/11:00am 30.5 33.7 25.6 75 3.5 W 19 30 10 16 1011.0 1010.9 0.2
21/10:30am 30.5 34.7 25.3 74 3.7 WSW 13 22 7 12 1011.2 1011.1 0.0
21/10:00am 28.7 33.8 24.7 79 2.8 WNW 6 9 3 5 1011.2 1011.1 0.0
21/09:30am 30.4 33.9 25.5 75 3.5 W 17 22 9 12 1011.3 1011.2 0.0
21/09:00am 30.7 36.1 26.6 79 2.9 WNW 11 19 6 10 1011.0 1010.9 1.0
21/08:30am 29.4 35.3 26.2 83 2.3 NW 7 11 4 6 1010.9 1010.8 1.0
21/08:00am 28.3 33.9 25.5 85 2.0 N 6 7 3 4 1010.7 1010.6 1.0
21/07:30am 27.5 32.2 24.9 86 1.8 WSW 9 17 5 9 1010.4 1010.3 1.0
21/07:00am 29.0 34.6 25.8 83 2.3 WNW 7 11 4 6 1010.0 1009.9 0.0
21/06:30am 28.3 32.9 24.7 81 2.5 WNW 9 15 5 8 1009.7 1009.6 0.0
21/06:00am 28.5 32.5 25.1 82 2.4 WNW 13 19 7 10 1009.5 1009.4 0.0
21/05:30am 28.1 33.2 25.5 86 1.8 NW 9 11 5 6 1009.0 1008.9 0.0
21/05:00am 28.1 30.8 24.1 79 2.8 WNW 17 24 9 13 1008.5 1008.4 0.0
21/04:30am 28.9 33.3 25.1 80 2.7 WNW 11 15 6 8 1008.4 1008.3 0.0
21/04:00am 28.8 33.5 25.6 83 2.3 WNW 11 15 6 8 1008.5 1008.4 0.0
21/03:30am 28.8 33.0 25.4 82 2.4 NW 13 17 7 9 1008.5 1008.4 0.0
21/03:00am 28.8 33.5 25.6 83 2.3 NW 11 17 6 9 1008.5 1008.4 0.0
21/02:30am 28.9 33.3 25.7 83 2.3 WNW 13 19 7 10 1008.6 1008.5 0.0
21/02:00am 28.9 33.6 25.5 82 2.4 WNW 11 19 6 10 1008.7 1008.6 0.0
21/01:30am 28.9 33.8 25.9 84 2.1 WNW 11 19 6 10 1009.1 1009.0 0.0
21/01:00am 29.0 33.5 25.8 83 2.3 WNW 13 17 7 9 1009.2 1009.1 0.0
21/12:30am 28.7 34.0 25.9 85 2.0 NW 9 13 5 7 1009.4 1009.3 0.0
21/12:00am 28.6 34.1 26.2 87 1.7 NW 9 13 5 7 1009.6 1009.5 0.0
 
Date/Time
EST
Temp
°C
App
Temp
°C
Dew
Point
°C
Rel
Hum
%
Delta-T
°C
Wind Press
QNH
hPa
Press
MSL
hPa
Rain since
9am
mm
Dir  Spd
km/h
Gust
km/h
Spd
kts
Gust
kts
20/11:30pm 28.2 34.2 26.0 88 1.6 NNW 6 7 3 4 1009.6 1009.5 0.0
20/11:00pm 28.4 34.2 26.0 87 1.7 NNW 7 9 4 5 1009.7 1009.6 0.0
20/10:30pm 28.6 34.4 26.0 86 1.8 NW 7 9 4 5 1009.8 1009.7 0.0
20/10:00pm 28.7 34.5 26.1 86 1.8 NNW 7 9 4 5 1009.7 1009.6 0.0
20/09:30pm 28.9 34.7 26.1 85 2.0 N 7 9 4 5 1009.0 1008.9 0.0
20/09:00pm 28.9 34.7 26.1 85 2.0 NNW 7 9 4 5 1008.8 1008.7 0.0
20/08:30pm 29.1 36.1 25.9 83 2.3 CALM 0 0 0 0 1008.4 1008.3 0.0
20/08:00pm 29.5 36.2 25.9 81 2.6 NW 2 7 1 4 1008.1 1008.0 0.0
20/07:30pm 29.8 35.1 25.3 77 3.2 WNW 7 11 4 6 1007.9 1007.8 0.0
20/07:00pm 30.3 34.3 25.1 73 3.7 WNW 13 20 7 11 1007.7 1007.6 0.0
20/06:30pm 30.5 34.9 25.6 75 3.5 W 13 19 7 10 1007.3 1007.2 0.0
20/06:00pm 31.0 35.1 25.8 74 3.7 WNW 15 22 8 12 1006.9 1006.8 0.0
20/05:30pm 31.7 35.9 26.0 72 4.1 W 15 20 8 11 1007.1 1007.0 0.0
20/05:00pm 32.0 35.4 25.8 69 4.4 W 19 32 10 17 1007.2 1007.1 0.0
20/04:30pm 32.2 35.6 25.3 67 4.9 W 17 28 9 15 1006.9 1006.8 0.0
20/04:00pm 32.6 35.5 25.4 66 5.1 W 20 32 11 17 1006.7 1006.6 0.0
20/03:30pm 32.5 35.7 25.8 68 4.8 W 20 30 11 16 1007.0 1006.9 0.0
20/03:00pm 32.5 35.5 26.1 69 4.6 W 22 33 12 18 1007.5 1007.4 0.0
20/02:30pm 32.6 35.6 26.2 69 4.6 W 22 33 12 18 1007.8 1007.7 0.0
20/02:00pm 31.8 34.7 25.9 71 4.2 W 22 32 12 17 1008.2 1008.1 0.0
20/01:30pm 32.2 33.9 24.0 62 5.7 W 22 32 12 17 1008.8 1008.7 0.0
20/01:00pm 32.0 34.5 25.3 67 4.8 W 22 32 12 17 1009.1 1009.0 0.0
20/12:30pm 32.2 34.1 25.0 65 5.1 WNW 24 35 13 19 1009.3 1009.2 0.0

Other formats

Comma delimited format used in spreadsheet applications
http://www.bom.gov.au/fwo/IDQ60801/IDQ60801.94170.axf

JavaScript Object Notation format (JSON) in row-major order
http://www.bom.gov.au/fwo/IDQ60801/IDQ60801.94170.json

Data quality

Most of these data are generated automatically and are frequently updated. Quality checks on data are not normally performed. It is possible for incorrect values to appear. Refer to information at About Latest Weather Observations and please check the disclaimer before using these data.